createdAt,value
2018-08-19T00:01:01.227Z,97.60
2018-08-19T00:03:34.134Z,98.20
2018-08-19T00:06:06.364Z,99.40
2018-08-19T00:08:38.701Z,99.90
2018-08-19T00:11:11.664Z,99.90
2018-08-19T00:13:43.857Z,99.90
2018-08-19T00:16:16.165Z,99.90
2018-08-19T00:18:48.452Z,99.90
2018-08-19T00:21:20.683Z,99.90
2018-08-19T00:23:52.958Z,99.90
2018-08-19T00:26:24.821Z,99.90
2018-08-19T00:28:56.992Z,99.90
2018-08-19T00:31:29.160Z,99.90
2018-08-19T00:34:01.295Z,99.90
2018-08-19T00:36:37.316Z,99.90
2018-08-19T00:39:11.194Z,99.90
2018-08-19T00:41:43.472Z,99.90
2018-08-19T00:44:15.618Z,99.90
2018-08-19T00:46:47.772Z,99.90
2018-08-19T00:49:21.365Z,99.90
2018-08-19T00:52:01.453Z,99.90
2018-08-19T00:54:34.530Z,99.90
2018-08-19T00:57:09.455Z,99.90
2018-08-19T00:59:41.371Z,99.90
2018-08-19T01:02:15.735Z,99.90
2018-08-19T01:04:47.755Z,99.90
2018-08-19T01:07:20.127Z,99.90
2018-08-19T01:09:53.353Z,99.90
2018-08-19T01:12:26.118Z,99.90
2018-08-19T01:14:58.117Z,99.90
2018-08-19T01:17:42.524Z,99.90
2018-08-19T01:20:23.060Z,99.90
2018-08-19T01:22:55.828Z,99.90
2018-08-19T01:25:27.988Z,99.90
2018-08-19T01:28:00.224Z,99.90
2018-08-19T01:30:32.305Z,99.90
2018-08-19T01:33:04.615Z,99.90
2018-08-19T01:35:42.865Z,99.90
2018-08-19T01:38:15.130Z,99.90
2018-08-19T01:40:47.587Z,99.90
2018-08-19T01:43:19.504Z,99.90
2018-08-19T01:45:51.567Z,99.90
2018-08-19T01:48:24.988Z,99.90
2018-08-19T01:50:58.117Z,99.90
2018-08-19T01:53:30.418Z,99.90
2018-08-19T01:56:02.362Z,99.90
2018-08-19T01:58:38.391Z,99.90
2018-08-19T02:01:10.988Z,99.90
2018-08-19T02:03:43.025Z,99.90
2018-08-19T02:06:15.342Z,99.90
2018-08-19T02:08:48.034Z,99.90
2018-08-19T02:11:32.461Z,99.90
2018-08-19T02:14:05.446Z,99.90
2018-08-19T02:16:39.349Z,99.90
2018-08-19T02:19:12.641Z,99.90
2018-08-19T02:21:45.380Z,99.90
2018-08-19T02:24:18.058Z,99.90
2018-08-19T02:26:51.622Z,99.90
2018-08-19T02:29:37.179Z,99.90
2018-08-19T02:32:10.726Z,99.90
2018-08-19T02:34:44.298Z,99.90
2018-08-19T02:37:19.515Z,99.90
2018-08-19T02:39:52.821Z,99.90
2018-08-19T02:42:31.014Z,99.90
2018-08-19T02:45:09.796Z,99.90
2018-08-19T02:47:43.743Z,99.90
2018-08-19T02:50:15.856Z,99.90
2018-08-19T02:52:48.199Z,99.90
2018-08-19T02:55:20.105Z,99.90
2018-08-19T02:57:54.321Z,99.90
2018-08-19T03:00:26.942Z,99.90
2018-08-19T03:03:00.841Z,99.90
2018-08-19T03:05:33.867Z,99.90
2018-08-19T03:08:06.738Z,99.90
2018-08-19T03:10:38.886Z,99.90
2018-08-19T03:13:10.928Z,99.90
2018-08-19T03:15:43.043Z,99.90
2018-08-19T03:18:15.646Z,99.90
2018-08-19T03:20:47.658Z,99.90
2018-08-19T03:23:20.376Z,99.90
2018-08-19T03:25:52.546Z,99.90
2018-08-19T03:28:24.909Z,99.90
2018-08-19T03:31:04.618Z,99.90
2018-08-19T03:33:35.030Z,99.90
2018-08-19T03:36:05.414Z,99.90
2018-08-19T03:38:35.977Z,99.90
2018-08-19T03:41:06.372Z,99.90
2018-08-19T03:43:37.204Z,99.90
2018-08-19T03:46:13.340Z,99.90
2018-08-19T03:48:43.702Z,99.90
2018-08-19T03:51:15.753Z,99.90
2018-08-19T03:53:46.062Z,99.90
2018-08-19T03:56:30.437Z,99.90
2018-08-19T03:59:03.607Z,99.90
2018-08-19T04:01:40.732Z,99.90
2018-08-19T04:04:11.734Z,99.90
2018-08-19T04:06:44.137Z,99.90
2018-08-19T04:09:14.401Z,99.90
2018-08-19T04:11:48.022Z,99.90
2018-08-19T04:14:27.784Z,99.90
2018-08-19T04:17:00.543Z,99.90
2018-08-19T04:19:31.417Z,99.90
2018-08-19T04:22:03.383Z,99.90
2018-08-19T04:24:35.648Z,99.90
2018-08-19T04:27:06.895Z,99.90
2018-08-19T04:29:37.587Z,99.90
2018-08-19T04:32:10.026Z,99.90
2018-08-19T04:34:40.866Z,99.90
2018-08-19T04:37:11.778Z,99.90
2018-08-19T04:39:42.210Z,99.90
2018-08-19T04:42:13.682Z,99.90
2018-08-19T04:44:44.384Z,99.90
2018-08-19T04:47:22.098Z,99.90
2018-08-19T04:49:53.804Z,99.90
2018-08-19T04:52:25.285Z,99.90
2018-08-19T04:54:57.527Z,99.90
2018-08-19T04:57:27.867Z,99.90
2018-08-19T04:59:58.355Z,99.90
2018-08-19T05:02:28.960Z,99.90
2018-08-19T05:04:59.692Z,99.90
2018-08-19T05:07:30.122Z,99.90
2018-08-19T05:10:00.608Z,99.90
2018-08-19T05:12:31.089Z,99.90
2018-08-19T05:15:01.556Z,99.90
2018-08-19T05:17:31.883Z,99.90
2018-08-19T05:20:12.814Z,99.90
2018-08-19T05:22:45.268Z,99.90
2018-08-19T05:25:17.747Z,99.90
2018-08-19T05:28:08.412Z,99.90
2018-08-19T05:30:40.855Z,99.90
2018-08-19T05:33:13.826Z,99.90
2018-08-19T05:35:45.996Z,99.90
2018-08-19T05:38:18.531Z,99.90
2018-08-19T05:41:05.257Z,99.90
2018-08-19T05:43:37.251Z,99.90
2018-08-19T05:46:09.726Z,99.90
2018-08-19T05:48:42.254Z,99.90
2018-08-19T05:51:14.264Z,99.90
2018-08-19T05:53:50.996Z,99.90
2018-08-19T05:56:23.175Z,99.90
2018-08-19T05:58:55.790Z,99.90
2018-08-19T06:01:33.844Z,99.90
2018-08-19T06:04:06.143Z,99.90
2018-08-19T06:06:38.521Z,99.90
2018-08-19T06:09:10.628Z,99.90
2018-08-19T06:11:42.801Z,99.90
2018-08-19T06:14:14.945Z,99.90
2018-08-19T06:16:47.282Z,99.90
2018-08-19T06:19:19.767Z,99.90
2018-08-19T06:21:52.460Z,99.90
2018-08-19T06:24:27.054Z,99.90
2018-08-19T06:26:59.427Z,99.90
2018-08-19T06:29:47.306Z,99.90
2018-08-19T06:32:24.587Z,99.90
2018-08-19T06:34:56.823Z,99.90
2018-08-19T06:37:28.992Z,99.90
2018-08-19T06:40:01.105Z,99.90
2018-08-19T06:42:34.310Z,99.90
2018-08-19T06:45:06.617Z,99.90
2018-08-19T06:47:38.999Z,99.90
2018-08-19T06:50:22.295Z,99.90
2018-08-19T06:52:54.407Z,99.90
2018-08-19T06:55:26.482Z,99.90
2018-08-19T06:58:00.964Z,99.90
2018-08-19T07:00:33.787Z,99.90
2018-08-19T07:03:07.782Z,99.90
2018-08-19T07:05:39.794Z,99.90
2018-08-19T07:08:12.249Z,99.90
2018-08-19T07:10:44.838Z,99.90
2018-08-19T07:13:17.931Z,99.90
2018-08-19T07:15:50.159Z,99.90
2018-08-19T07:18:22.565Z,99.90
2018-08-19T07:20:54.878Z,99.90
2018-08-19T07:23:27.327Z,99.90
2018-08-19T07:25:59.500Z,99.90
2018-08-19T07:28:32.169Z,99.90
2018-08-19T07:31:04.249Z,99.90
2018-08-19T07:33:36.367Z,99.90
2018-08-19T07:36:08.573Z,99.90
2018-08-19T07:38:40.586Z,99.90
2018-08-19T07:41:12.878Z,99.90
2018-08-19T07:43:45.082Z,99.90
2018-08-19T07:46:17.121Z,99.90
2018-08-19T07:48:49.343Z,99.90
2018-08-19T07:51:21.486Z,99.90
2018-08-19T07:53:53.923Z,99.90
2018-08-19T07:56:26.172Z,99.90
2018-08-19T07:59:05.737Z,99.90
2018-08-19T08:01:39.131Z,99.90
2018-08-19T08:04:11.743Z,99.90
2018-08-19T08:06:43.910Z,99.90
2018-08-19T08:09:16.954Z,99.90
2018-08-19T08:11:48.971Z,99.90
2018-08-19T08:14:21.242Z,99.90
2018-08-19T08:16:57.214Z,99.90
2018-08-19T08:19:29.620Z,99.90
2018-08-19T08:22:06.744Z,99.90
2018-08-19T08:24:39.953Z,99.90
2018-08-19T08:27:12.185Z,99.90
2018-08-19T08:29:44.745Z,99.90
2018-08-19T08:32:17.163Z,99.90
2018-08-19T08:34:49.125Z,99.90
2018-08-19T08:37:21.099Z,99.90
2018-08-19T08:39:58.991Z,99.90
2018-08-19T08:42:35.757Z,99.90
2018-08-19T08:45:07.971Z,99.90
2018-08-19T08:47:40.128Z,99.90
2018-08-19T08:50:13.425Z,99.90
2018-08-19T08:52:46.909Z,99.90
2018-08-19T08:55:19.255Z,99.90
2018-08-19T08:57:51.571Z,99.90
2018-08-19T09:00:23.586Z,99.90
2018-08-19T09:02:56.037Z,99.90
2018-08-19T09:05:28.070Z,99.90
2018-08-19T09:08:02.492Z,99.90
2018-08-19T09:10:34.703Z,99.90
2018-08-19T09:13:07.122Z,99.90
2018-08-19T09:15:39.159Z,99.90
2018-08-19T09:18:11.668Z,99.90
2018-08-19T09:20:43.587Z,99.90
2018-08-19T09:23:15.720Z,99.90
2018-08-19T09:25:48.254Z,99.90
2018-08-19T09:28:20.499Z,99.90
2018-08-19T09:30:52.505Z,99.90
2018-08-19T09:33:24.761Z,99.90
2018-08-19T09:35:56.720Z,99.90
2018-08-19T09:38:28.938Z,99.90
2018-08-19T09:41:00.869Z,99.90
2018-08-19T09:43:33.058Z,99.90
2018-08-19T09:46:05.057Z,99.90
2018-08-19T09:48:38.307Z,99.90
2018-08-19T09:51:14.988Z,99.90
2018-08-19T09:53:46.904Z,99.90
2018-08-19T09:56:22.982Z,99.90
2018-08-19T09:58:59.439Z,99.90
2018-08-19T10:01:36.050Z,99.90
2018-08-19T10:04:21.189Z,99.90
2018-08-19T10:07:00.594Z,99.90
2018-08-19T10:09:32.626Z,99.90
2018-08-19T10:12:04.534Z,99.90
2018-08-19T10:14:36.635Z,99.90
2018-08-19T10:17:08.805Z,99.90
2018-08-19T10:19:41.229Z,99.90
2018-08-19T10:22:13.337Z,99.90
2018-08-19T10:24:46.568Z,99.90
2018-08-19T10:27:18.624Z,99.90
2018-08-19T10:29:50.799Z,99.90
2018-08-19T10:32:23.431Z,99.90
2018-08-19T10:34:55.972Z,99.90
2018-08-19T10:37:28.053Z,99.90
2018-08-19T10:40:00.176Z,99.90
2018-08-19T10:42:32.740Z,99.90
2018-08-19T10:45:12.034Z,99.90
2018-08-19T10:47:44.452Z,99.90
2018-08-19T10:50:16.442Z,99.90
2018-08-19T10:52:48.585Z,99.90
2018-08-19T10:55:20.707Z,99.90
2018-08-19T10:57:53.022Z,99.90
2018-08-19T11:00:31.220Z,99.90
2018-08-19T11:03:24.458Z,99.90
2018-08-19T11:05:58.061Z,99.90
2018-08-19T11:08:30.056Z,99.90
2018-08-19T11:11:03.047Z,99.90
2018-08-19T11:13:35.039Z,99.90
2018-08-19T11:16:07.222Z,99.90
2018-08-19T11:18:46.845Z,99.90
2018-08-19T11:21:28.386Z,99.90
2018-08-19T11:24:01.224Z,99.90
2018-08-19T11:26:33.403Z,99.90
2018-08-19T11:29:07.356Z,99.90
2018-08-19T11:31:39.785Z,99.90
2018-08-19T11:34:11.897Z,99.90
2018-08-19T11:36:44.754Z,99.90
2018-08-19T11:39:18.101Z,99.90
2018-08-19T11:41:50.212Z,99.90
2018-08-19T11:44:22.420Z,99.90
2018-08-19T11:46:54.744Z,99.90
2018-08-19T11:49:26.713Z,99.90
2018-08-19T11:52:00.918Z,99.90
2018-08-19T11:54:33.717Z,99.90
2018-08-19T11:57:11.712Z,99.90
2018-08-19T11:59:45.817Z,99.90
2018-08-19T12:02:24.686Z,99.90
2018-08-19T12:04:57.898Z,99.90
2018-08-19T12:07:30.489Z,99.90
2018-08-19T12:10:02.948Z,99.90
2018-08-19T12:12:47.829Z,99.90
2018-08-19T12:15:20.038Z,99.90
2018-08-19T12:17:52.225Z,99.90
2018-08-19T12:20:28.861Z,99.90
2018-08-19T12:23:00.871Z,99.90
2018-08-19T12:25:33.123Z,99.90
2018-08-19T12:28:05.358Z,99.90
2018-08-19T12:30:37.584Z,99.90
2018-08-19T12:33:24.428Z,99.90
2018-08-19T12:35:59.361Z,99.90
2018-08-19T12:38:31.822Z,99.90
2018-08-19T12:41:05.938Z,99.90
2018-08-19T12:43:38.065Z,99.90
2018-08-19T12:46:10.290Z,99.90
2018-08-19T12:48:42.329Z,99.90
2018-08-19T12:51:14.646Z,99.90
2018-08-19T12:53:46.694Z,99.90
2018-08-19T12:56:18.836Z,99.90
2018-08-19T12:58:50.983Z,99.90
2018-08-19T13:01:23.707Z,99.90
2018-08-19T13:03:55.931Z,99.90
2018-08-19T13:06:27.862Z,99.90
2018-08-19T13:09:00.355Z,99.90
2018-08-19T13:11:32.759Z,99.90
2018-08-19T13:14:05.101Z,99.90
2018-08-19T13:16:37.669Z,99.90
2018-08-19T13:19:09.821Z,99.90
2018-08-19T13:21:41.769Z,99.90
2018-08-19T13:24:14.343Z,99.90
2018-08-19T13:26:46.385Z,99.90
2018-08-19T13:29:18.859Z,99.90
2018-08-19T13:31:50.989Z,99.90
2018-08-19T13:34:23.481Z,99.90
2018-08-19T13:36:56.086Z,99.90
2018-08-19T13:39:28.647Z,99.90
2018-08-19T13:42:00.703Z,99.90
2018-08-19T13:44:33.098Z,99.90
2018-08-19T13:47:05.701Z,99.90
2018-08-19T13:49:37.711Z,99.90
2018-08-19T13:52:09.717Z,99.90
2018-08-19T13:55:01.329Z,99.90
2018-08-19T13:57:33.881Z,99.90
2018-08-19T14:00:06.475Z,99.90
2018-08-19T14:02:38.323Z,99.90
2018-08-19T14:05:10.545Z,99.90
2018-08-19T14:07:42.926Z,99.90
2018-08-19T14:10:16.447Z,99.90
2018-08-19T14:12:48.735Z,99.90
2018-08-19T14:15:20.887Z,99.90
2018-08-19T14:17:53.286Z,99.90
2018-08-19T14:20:25.468Z,99.90
2018-08-19T14:22:57.643Z,99.90
2018-08-19T14:25:29.639Z,99.90
2018-08-19T14:28:01.494Z,99.90
2018-08-19T14:30:34.089Z,99.90
2018-08-19T14:33:06.208Z,99.90
2018-08-19T14:35:38.185Z,99.90
2018-08-19T14:38:10.334Z,99.90
2018-08-19T14:40:42.789Z,99.90
2018-08-19T14:43:15.119Z,99.90
2018-08-19T14:45:47.551Z,99.90
2018-08-19T14:48:20.189Z,99.90
2018-08-19T14:50:52.369Z,99.90
2018-08-19T14:53:24.464Z,99.90
2018-08-19T14:56:06.543Z,99.50
2018-08-19T14:58:38.309Z,95.40
2018-08-19T15:01:10.786Z,93.10
2018-08-19T15:03:45.184Z,90.10
2018-08-19T15:06:15.694Z,92.60
2018-08-19T15:08:45.969Z,93.90
2018-08-19T15:11:18.807Z,92.80
2018-08-19T15:13:50.967Z,93.40
2018-08-19T15:16:23.065Z,92.20
2018-08-19T15:18:55.465Z,92.40
2018-08-19T15:21:31.044Z,92.40
2018-08-19T15:24:03.790Z,94.50
2018-08-19T15:26:36.147Z,93.80
2018-08-19T15:29:09.046Z,92.40
2018-08-19T15:31:49.195Z,92.20
2018-08-19T15:34:25.143Z,91.60
2018-08-19T15:36:58.349Z,90.10
2018-08-19T15:39:30.596Z,90.60
2018-08-19T15:42:05.076Z,90.70
2018-08-19T15:44:37.133Z,91.10
2018-08-19T15:47:10.482Z,92.60
2018-08-19T15:49:42.999Z,92.10
2018-08-19T15:52:15.343Z,91.70
2018-08-19T15:54:53.917Z,92.10
2018-08-19T15:57:26.259Z,88.30
2018-08-19T15:59:59.047Z,86.20
2018-08-19T16:02:29.498Z,78.70
2018-08-19T16:05:04.640Z,81.30
2018-08-19T16:07:35.154Z,78.70
2018-08-19T16:10:05.782Z,75.50
2018-08-19T16:12:41.939Z,75.10
2018-08-19T16:15:18.376Z,74.10
2018-08-19T16:17:50.530Z,74.50
2018-08-19T16:20:23.755Z,77.60
2018-08-19T16:22:56.634Z,74.10
2018-08-19T16:25:29.350Z,75.80
2018-08-19T16:28:01.404Z,70.10
2018-08-19T16:30:33.492Z,68.20
2018-08-19T16:33:06.057Z,67.20
2018-08-19T16:35:38.851Z,67.70
2018-08-19T16:38:10.879Z,67.30
2018-08-19T16:40:46.606Z,65.90
2018-08-19T16:43:19.249Z,63.20
2018-08-19T16:45:51.629Z,61.90
2018-08-19T16:48:23.830Z,63.40
2018-08-19T16:50:55.691Z,61.00
2018-08-19T16:53:28.145Z,64.30
2018-08-19T16:56:00.332Z,63.10
2018-08-19T16:58:33.346Z,61.20
2018-08-19T17:01:05.920Z,60.30
2018-08-19T17:03:41.201Z,59.80
2018-08-19T17:06:19.683Z,60.40
2018-08-19T17:08:51.544Z,61.50
2018-08-19T17:11:24.049Z,59.60
2018-08-19T17:13:56.891Z,61.50
2018-08-19T17:16:28.933Z,60.30
2018-08-19T17:19:02.576Z,58.90
2018-08-19T17:21:35.314Z,60.00
2018-08-19T17:24:07.557Z,59.00
2018-08-19T17:26:39.878Z,59.40
2018-08-19T17:29:22.550Z,59.40
2018-08-19T17:31:54.784Z,57.00
2018-08-19T17:34:26.878Z,57.40
2018-08-19T17:36:59.117Z,55.90
2018-08-19T17:39:33.255Z,56.00
2018-08-19T17:42:06.403Z,56.30
2018-08-19T17:44:38.942Z,56.90
2018-08-19T17:47:11.197Z,54.60
2018-08-19T17:49:43.467Z,54.00
2018-08-19T17:52:15.584Z,54.00
2018-08-19T17:54:48.455Z,52.90
2018-08-19T17:57:20.756Z,53.20
2018-08-19T17:59:54.004Z,52.60
2018-08-19T18:02:26.262Z,53.20
2018-08-19T18:04:59.546Z,55.00
2018-08-19T18:07:31.543Z,54.60
2018-08-19T18:10:03.837Z,52.40
2018-08-19T18:12:35.978Z,51.80
2018-08-19T18:15:08.964Z,53.30
2018-08-19T18:17:42.791Z,53.60
2018-08-19T18:20:26.670Z,53.60
2018-08-19T18:22:59.746Z,52.40
2018-08-19T18:25:31.775Z,51.40
2018-08-19T18:28:13.133Z,50.70
2018-08-19T18:30:46.147Z,51.80
2018-08-19T18:33:18.505Z,51.90
2018-08-19T18:35:50.633Z,51.40
2018-08-19T18:38:28.240Z,51.30
2018-08-19T18:41:00.432Z,52.80
2018-08-19T18:43:32.826Z,53.70
2018-08-19T18:46:05.145Z,52.60
2018-08-19T18:48:37.095Z,51.20
2018-08-19T18:51:08.964Z,50.90
2018-08-19T18:53:42.358Z,50.30
2018-08-19T18:56:14.342Z,49.00
2018-08-19T18:58:47.844Z,50.00
2018-08-19T19:01:20.047Z,50.20
2018-08-19T19:03:52.415Z,49.30
2018-08-19T19:06:24.443Z,48.60
2018-08-19T19:08:57.525Z,48.20
2018-08-19T19:11:29.280Z,47.40
2018-08-19T19:14:00.947Z,46.80
2018-08-19T19:16:42.731Z,47.10
2018-08-19T19:19:16.551Z,47.30
2018-08-19T19:21:51.604Z,46.50
2018-08-19T19:24:25.949Z,47.10
2018-08-19T19:26:56.570Z,48.20
2018-08-19T19:29:29.096Z,47.10
2018-08-19T19:32:09.182Z,46.50
2018-08-19T19:34:40.201Z,46.90
2018-08-19T19:37:10.623Z,47.10
2018-08-19T19:39:41.293Z,46.50
2018-08-19T19:42:13.622Z,47.00
2018-08-19T19:44:44.541Z,45.40
2018-08-19T19:47:14.967Z,45.80
2018-08-19T19:49:59.785Z,46.70
2018-08-19T19:52:31.033Z,46.40
2018-08-19T19:55:01.701Z,46.10
2018-08-19T19:57:32.577Z,46.50
2018-08-19T20:00:08.759Z,45.80
2018-08-19T20:02:39.168Z,45.20
2018-08-19T20:05:14.391Z,44.60
2018-08-19T20:07:44.961Z,45.40
2018-08-19T20:10:33.271Z,45.00
2018-08-19T20:13:05.537Z,45.40
2018-08-19T20:15:35.937Z,46.00
2018-08-19T20:18:08.587Z,45.80
2018-08-19T20:20:40.785Z,46.10
2018-08-19T20:23:26.870Z,46.10
2018-08-19T20:25:57.632Z,45.00
2018-08-19T20:28:29.812Z,45.80
2018-08-19T20:31:00.883Z,45.00
2018-08-19T20:33:31.858Z,44.70
2018-08-19T20:36:02.331Z,44.80
2018-08-19T20:38:32.724Z,44.40
2018-08-19T20:41:03.181Z,46.10
2018-08-19T20:43:33.686Z,44.80
2018-08-19T20:46:06.241Z,44.50
2018-08-19T20:48:39.953Z,45.80
2018-08-19T20:51:12.435Z,46.50
2018-08-19T20:53:45.179Z,45.50
2018-08-19T20:56:17.605Z,46.30
2018-08-19T20:58:49.971Z,45.20
2018-08-19T21:01:29.599Z,45.50
2018-08-19T21:04:02.347Z,45.50
2018-08-19T21:06:35.490Z,46.00
2018-08-19T21:09:08.175Z,45.90
2018-08-19T21:11:41.876Z,46.00
2018-08-19T21:14:14.166Z,45.30
2018-08-19T21:16:46.411Z,45.40
2018-08-19T21:19:19.322Z,46.30
2018-08-19T21:21:51.798Z,45.70
2018-08-19T21:24:24.922Z,47.30
2018-08-19T21:27:01.877Z,48.20
2018-08-19T21:29:34.527Z,48.50
2018-08-19T21:32:06.530Z,46.90
2018-08-19T21:34:38.836Z,46.00
2018-08-19T21:37:10.936Z,44.60
2018-08-19T21:39:43.945Z,42.30
2018-08-19T21:42:16.111Z,44.10
2018-08-19T21:44:48.057Z,45.10
2018-08-19T21:47:20.588Z,45.10
2018-08-19T21:49:56.529Z,44.50
2018-08-19T21:52:28.772Z,43.40
2018-08-19T21:55:00.653Z,44.80
2018-08-19T21:57:32.777Z,46.20
2018-08-19T22:00:05.165Z,46.50
2018-08-19T22:02:41.630Z,46.30
2018-08-19T22:05:13.928Z,47.20
2018-08-19T22:07:45.238Z,45.70
2018-08-19T22:10:15.650Z,43.80
2018-08-19T22:12:50.045Z,47.10
2018-08-19T22:15:23.371Z,46.90
2018-08-19T22:17:54.567Z,46.80
2018-08-19T22:20:24.962Z,47.40
2018-08-19T22:22:56.046Z,49.50
2018-08-19T22:25:26.713Z,49.90
2018-08-19T22:27:57.314Z,51.10
2018-08-19T22:30:28.961Z,51.20
2018-08-19T22:32:59.826Z,51.70
2018-08-19T22:35:32.624Z,59.20
2018-08-19T22:38:06.235Z,61.80
2018-08-19T22:40:38.749Z,61.80
2018-08-19T22:43:10.081Z,63.50
2018-08-19T22:45:40.549Z,64.60
2018-08-19T22:48:11.510Z,70.20
2018-08-19T22:50:41.897Z,79.30
2018-08-19T22:53:13.276Z,83.90
2018-08-19T22:55:43.931Z,87.40
2018-08-19T22:58:15.435Z,89.40
2018-08-19T23:00:46.058Z,91.20
2018-08-19T23:03:16.624Z,91.00
2018-08-19T23:05:48.718Z,87.10
2018-08-19T23:08:25.005Z,87.40
2018-08-19T23:10:58.490Z,88.30
2018-08-19T23:13:41.041Z,89.50
2018-08-19T23:16:12.945Z,91.50
2018-08-19T23:18:44.389Z,93.20
2018-08-19T23:21:14.852Z,95.60
2018-08-19T23:23:45.379Z,99.20
2018-08-19T23:26:15.689Z,99.90
2018-08-19T23:28:46.304Z,99.90
2018-08-19T23:31:16.685Z,99.90
2018-08-19T23:33:47.005Z,99.90
2018-08-19T23:36:17.240Z,99.90
2018-08-19T23:38:47.720Z,99.90
2018-08-19T23:41:18.089Z,99.90
2018-08-19T23:43:48.602Z,99.90
2018-08-19T23:46:18.936Z,99.90
2018-08-19T23:48:49.824Z,99.80
2018-08-19T23:51:25.476Z,99.90
2018-08-19T23:53:56.089Z,99.90
2018-08-19T23:56:26.577Z,99.90
2018-08-19T23:58:57.077Z,99.90
